Data for 12/30/2005

Time Sea-Level Adjusted Pressure Absolute Pressure Temperature Relative Humidity Dew Point   
(mb) (inHg) (mb) (inHg) (C) (F) (%) (C) (F)
00:05 1013 29.91 842 24.86 -3.8 25.2 73 -7.9 17.8
00:10 1013 29.91 842 24.86 -4 24.8 74 -7.9 17.7
00:15 1013 29.91 842 24.86 -4.1 24.7 74 -8 17.7
00:20 1013 29.91 842 24.86 -4.1 24.7 74 -8 17.7
00:25 1013 29.91 842 24.86 -4.1 24.6 73 -8.2 17.2
00:30 1012 29.88 842 24.86 -4.2 24.4 76 -7.9 17.8
00:35 1012 29.88 841 24.83 -4.1 24.6 75 -7.8 17.9
00:40 1012 29.88 841 24.83 -3.9 25 69 -8.8 16.2
00:45 1012 29.88 841 24.83 -4.2 24.4 75 -8 17.7
00:50 1012 29.88 841 24.83 -5.5 22.2 79 -8.6 16.5
00:55 1011 29.85 841 24.83 -5.8 21.5 82 -8.5 16.7
01:00 1011 29.85 841 24.83 -5.7 21.8 81 -8.4 16.9
01:05 1011 29.85 840 24.81 -5.3 22.5 79 -8.4 16.8
01:10 1011 29.85 840 24.81 -5.2 22.6 77 -8.6 16.5
01:15 1011 29.85 840 24.81 -5.2 22.6 77 -8.6 16.5
01:20 1011 29.85 840 24.81 -5.2 22.7 77 -8.6 16.4
01:25 1011 29.85 840 24.81 -5.6 22 78 -8.8 16.2
01:30 1011 29.85 840 24.81 -5.9 21.4 79 -9 15.8
01:35 1011 29.85 840 24.81 -5.8 21.5 78 -9.2 15.5
01:40 1011 29.85 840 24.81 -5.6 21.9 77 -8.9 15.9
01:45 1011 29.85 840 24.81 -5.5 22.1 76 -9.1 15.7
01:50 1011 29.85 840 24.81 -5.5 22.1 76 -9.1 15.6
01:55 1011 29.85 840 24.81 -5.4 22.2 76 -9.1 15.7
02:00 1011 29.85 840 24.81 -5.4 22.2 77 -8.9 15.9
02:05 1011 29.85 840 24.81 -5.2 22.6 75 -9.1 15.7
02:10 1011 29.85 840 24.81 -5.1 22.9 72 -9.3 15.3
02:15 1011 29.85 840 24.81 -5.2 22.6 74 -9.3 15.3
02:20 1011 29.85 840 24.81 -5.7 21.7 76 -9.4 15.1
02:25 1011 29.85 840 24.81 -6.1 21 77 -9.5 14.9
02:30 1011 29.85 840 24.81 -6.2 20.8 78 -9.5 14.9
02:35 1011 29.85 840 24.81 -6.2 20.9 78 -9.4 15.1
02:40 1011 29.85 840 24.81 -6.2 20.8 78 -9.4 15
02:45 1011 29.85 840 24.81 -6.4 20.4 79 -9.5 14.8
02:50 1011 29.85 840 24.81 -6.2 20.9 77 -9.6 14.7
02:55 1011 29.85 840 24.81 -5.5 22.1 72 -9.7 14.5
03:00 1011 29.85 840 24.81 -5.2 22.6 74 -9.1 15.6
03:05 1011 29.85 840 24.81 -5.9 21.3 77 -9.4 15.1
03:10 1011 29.85 840 24.81 -6.1 21 78 -9.3 15.3
03:15 1010 29.83 840 24.81 -6.3 20.7 80 -9.2 15.4
03:20 1010 29.83 840 24.81 -6.5 20.3 81 -9.2 15.4
03:25 1010 29.83 839 24.78 -6.4 20.5 80 -9.3 15.3
03:30 1010 29.83 839 24.78 -6.4 20.5 81 -9.2 15.5
03:35 1010 29.83 839 24.78 -6.3 20.7 80 -9.2 15.4
03:40 1010 29.83 839 24.78 -6.1 21 79 -9.2 15.4
03:45 1010 29.83 839 24.78 -6 21.3 77 -9.4 15
03:50 1010 29.83 839 24.78 -5.7 21.7 76 -9.4 15.2
03:55 1009 29.8 839 24.78 -5.6 22 76 -9.2 15.5
04:00 1009 29.8 839 24.78 -5.6 22 76 -9.2 15.4
04:05 1009 29.8 838 24.75 -5.5 22 75 -9.2 15.4
04:10 1009 29.8 838 24.75 -5.5 22.1 74 -9.4 15.1
04:15 1009 29.8 838 24.75 -5.4 22.3 75 -9.2 15.4
04:20 1009 29.8 838 24.75 -5.3 22.4 74 -9.2 15.5
04:25 1009 29.8 838 24.75 -5.3 22.5 74 -9.2 15.5
04:30 1009 29.8 839 24.78 -5.2 22.6 74 -9.1 15.5
04:35 1009 29.8 839 24.78 -5.2 22.7 73 -9.3 15.3
04:40 1009 29.8 839 24.78 -5.2 22.7 74 -9.2 15.4
04:45 1009 29.8 838 24.75 -5.4 22.2 76 -9.1 15.6
04:50 1009 29.8 838 24.75 -5.4 22.3 75 -9.1 15.6
04:55 1009 29.8 838 24.75 -5.3 22.5 75 -9.1 15.6
05:00 1009 29.8 838 24.75 -5.2 22.6 75 -9.1 15.7
05:05 1008 29.77 838 24.75 -5.1 22.8 74 -9.1 15.5
05:10 1008 29.77 838 24.75 -5 23 73 -9.1 15.5
05:15 1008 29.77 837 24.72 -4.7 23.6 69 -9.4 15
05:20 1008 29.77 838 24.75 -4.5 23.9 69 -9.3 15.3
05:25 1008 29.77 838 24.75 -4.5 24 72 -8.8 16.2
05:30 1009 29.8 838 24.75 -4.6 23.6 73 -8.8 16.2
05:35 1009 29.8 838 24.75 -4.7 23.5 75 -8.5 16.7
05:40 1009 29.8 838 24.75 -4.8 23.4 74 -8.7 16.4
05:45 1009 29.8 838 24.75 -4.7 23.6 74 -8.6 16.6
05:50 1008 29.77 838 24.75 -4.7 23.5 73 -8.8 16.2
05:55 1008 29.77 838 24.75 -4.9 23.2 75 -8.7 16.4
06:00 1008 29.77 837 24.72 -5 23 75 -8.8 16.2
06:05 1008 29.77 837 24.72 -4.9 23.2 74 -8.8 16.1
06:10 1008 29.77 837 24.72 -4.7 23.6 74 -8.7 16.4
06:15 1008 29.77 837 24.72 -4.6 23.6 73 -8.8 16.1
06:20 1008 29.77 837 24.72 -4.7 23.6 74 -8.7 16.3
06:25 1008 29.77 837 24.72 -4.7 23.6 73 -8.8 16.2
06:30 1008 29.77 837 24.72 -4.4 24 73 -8.6 16.6
06:35 1008 29.77 837 24.72 -4.4 24 74 -8.4 16.9
06:40 1008 29.77 837 24.72 -4.3 24.3 74 -8.3 17
06:45 1008 29.77 837 24.72 -4.2 24.4 73 -8.3 17
06:50 1008 29.77 837 24.72 -4.2 24.4 73 -8.3 17.1
06:55 1008 29.77 837 24.72 -4 24.7 72 -8.4 16.9
07:00 1007 29.74 837 24.72 -3.9 24.9 72 -8.3 17.1
07:05 1007 29.74 836 24.69 -3.8 25.2 71 -8.3 17
07:10 1007 29.74 836 24.69 -3.8 25.2 72 -8.2 17.3
07:15 1007 29.74 836 24.69 -3.7 25.3 71 -8.3 17.1
07:20 1007 29.74 836 24.69 -3.6 25.6 69 -8.5 16.8
07:25 1007 29.74 836 24.69 -3.5 25.7 72 -7.9 17.7
07:30 1007 29.74 836 24.69 -3.5 25.7 69 -8.4 16.8
07:35 1007 29.74 836 24.69 -3.4 25.9 69 -8.2 17.2
07:40 1007 29.74 836 24.69 -3.3 26 69 -8.2 17.3
07:45 1007 29.74 836 24.69 -3.3 26 70 -8 17.5
07:50 1007 29.74 836 24.69 -3.2 26.2 69 -8.1 17.4
07:55 1007 29.74 836 24.69 -3.1 26.4 69 -8 17.7
08:00 1007 29.74 836 24.69 -3 26.5 69 -8 17.5
08:05 1007 29.74 836 24.69 -2.9 26.7 69 -7.9 17.8
08:10 1007 29.74 836 24.69 -2.8 26.9 68 -7.9 17.7
08:15 1007 29.74 836 24.69 -2.8 26.9 70 -7.5 18.5
08:20 1007 29.74 836 24.69 -2.9 26.9 69 -7.7 18.1
08:25 1006 29.71 836 24.69 -2.8 27 69 -7.7 18.2
08:30 1006 29.71 836 24.69 -2.8 26.9 69 -7.7 18.2
08:35 1007 29.74 836 24.69 -2.9 26.8 72 -7.3 18.8
08:40 1007 29.74 836 24.69 -2.8 26.9 71 -7.4 18.7
08:45 1007 29.74 836 24.69 -2.7 27.1 71 -7.3 18.8
08:50 1007 29.74 836 24.69 -2.6 27.3 69 -7.5 18.5
08:55 1007 29.74 836 24.69 -2.6 27.3 71 -7.2 19.1
09:00 1007 29.74 836 24.69 -2.5 27.5 69 -7.4 18.7
09:05 1007 29.74 836 24.69 -2.3 27.9 69 -7.3 18.9
09:10 1007 29.74 836 24.69 -2.3 27.8 70 -7.1 19.2
09:15 1007 29.74 836 24.69 -2.4 27.7 69 -7.3 18.9
09:20 1007 29.74 836 24.69 -2.3 27.9 70 -7 19.5
09:25 1007 29.74 836 24.69 -2.3 27.9 71 -6.9 19.6
09:30 1007 29.74 836 24.69 -2.1 28.2 71 -6.7 19.9
09:35 1007 29.74 836 24.69 -2 28.4 70 -6.7 20
09:40 1007 29.74 836 24.69 -1.7 28.9 69 -6.7 20
09:45 1007 29.74 836 24.69 -1.5 29.2 69 -6.5 20.3
09:50 1007 29.74 836 24.69 -1.6 29.2 70 -6.4 20.4
09:55 1007 29.74 836 24.69 -1.6 29.1 71 -6.3 20.7
10:00 1007 29.74 836 24.69 -1.7 29 71 -6.3 20.7
10:05 1006 29.71 836 24.69 -1.6 29.1 71 -6.1 20.9
10:10 1006 29.71 835 24.66 -1.6 29.1 70 -6.3 20.7
10:15 1006 29.71 835 24.66 -1.6 29.2 70 -6.3 20.6
10:20 1006 29.71 835 24.66 -1.6 29.1 69 -6.6 20.2
10:25 1006 29.71 835 24.66 -1.6 29.2 70 -6.3 20.7
10:30 1006 29.71 835 24.66 -1.5 29.3 71 -6.2 20.9
10:35 1006 29.71 835 24.66 -1.5 29.2 72 -6 21.2
10:40 1006 29.71 835 24.66 -1.5 29.2 72 -6 21.1
10:45 1005 29.68 835 24.66 -1.4 29.5 70 -6.2 20.8
10:50 1005 29.68 835 24.66 -1.1 30 69 -6.2 20.9
10:55 1006 29.71 835 24.66 -0.7 30.7 67 -6.1 21.1
11:00 1006 29.71 835 24.66 -0.4 31.2 65 -6.1 21
11:05 1006 29.71 835 24.66 -0.2 31.6 64 -6.3 20.7
11:10 1006 29.71 835 24.66 -0 32 62 -6.5 20.2
11:15 1006 29.71 835 24.66 0.3 32.5 61 -6.3 20.7
11:20 1006 29.71 835 24.66 0.6 33.1 60 -6.3 20.7
11:25 1005 29.68 835 24.66 0.7 33.2 60 -6.2 20.9
11:30 1005 29.68 835 24.66 1.4 34.5 59 -5.8 21.6
11:35 1005 29.68 834 24.63 1.4 34.6 58 -6 21.2
11:40 1005 29.68 834 24.63 1.2 34.2 58 -6.2 20.8
11:45 1005 29.68 834 24.63 1.3 34.3 59 -5.8 21.6
11:50 1005 29.68 834 24.63 1.4 34.4 60 -5.7 21.8
11:55 1005 29.68 834 24.63 1.4 34.5 60 -5.6 21.9
12:00 1005 29.68 834 24.63 1.7 35 67 -3.8 25.1
12:05 1005 29.68 834 24.63 0.5 32.8 72 -4.1 24.7
12:10 1005 29.68 834 24.63 0.2 32.3 71 -4.4 24.1
12:15 1005 29.68 834 24.63 -0.1 31.8 75 -4.1 24.7
12:20 1005 29.68 834 24.63 -0.1 31.9 75 -4 24.9
12:25 1005 29.68 834 24.63 0 32.1 72 -4.4 24.1
12:30 1005 29.68 834 24.63 0.5 33 70 -4.3 24.2
12:35 1005 29.68 834 24.63 0.7 33.3 70 -4.2 24.5
12:40 1005 29.68 834 24.63 0.6 33 68 -4.7 23.6
12:45 1005 29.68 834 24.63 0.1 32.3 67 -5.3 22.4
12:50 1005 29.68 834 24.63 -0.2 31.6 70 -5.2 22.7
12:55 1004 29.65 834 24.63 0.1 32.1 67 -5.3 22.4
13:00 1004 29.65 834 24.63 0.4 32.8 67 -4.9 23.1
13:05 1004 29.65 834 24.63 0.8 33.4 66 -4.8 23.3
13:10 1004 29.65 833 24.6 0.2 32.3 73 -4.1 24.6
13:15 1004 29.65 833 24.6 -0.4 31.3 75 -4.2 24.5
13:20 1004 29.65 833 24.6 -0.5 31.1 76 -4.1 24.6
13:25 1004 29.65 833 24.6 -0.2 31.6 74 -4.3 24.3
13:30 1004 29.65 833 24.6 -0.1 31.8 75 -4 24.8
13:35 1003 29.62 833 24.6 0.3 32.5 72 -4.3 24.3
13:40 1003 29.62 833 24.6 0.8 33.4 69 -4.2 24.5
13:45 1003 29.62 832 24.57 1 33.7 65 -4.8 23.3
13:50 1003 29.62 832 24.57 1.1 34 64 -5 23
13:55 1003 29.62 832 24.57 0.8 33.4 69 -4.4 24.1
14:00 1003 29.62 832 24.57 0.6 33 70 -4.3 24.2
14:05 1003 29.62 832 24.57 0.7 33.3 67 -4.6 23.7
14:10 1003 29.62 832 24.57 0.7 33.3 70 -4.2 24.4
14:15 1002 29.59 832 24.57 0.8 33.5 69 -4.2 24.5
14:20 1002 29.59 831 24.54 0.7 33.3 69 -4.3 24.3
14:25 1002 29.59 831 24.54 0.4 32.8 68 -4.9 23.2
14:30 1002 29.59 831 24.54 0.5 32.8 67 -5 22.9
14:35 1002 29.59 831 24.54 0.6 33.1 64 -5.5 22.1
14:40 1002 29.59 832 24.57 0.8 33.4 59 -6.2 20.8
14:45 1002 29.59 832 24.57 0.9 33.6 62 -5.5 22.1
14:50 1002 29.59 832 24.57 1 33.8 59 -6.2 20.9
14:55 1002 29.59 832 24.57 1.1 34 60 -5.9 21.4
15:00 1002 29.59 831 24.54 1.1 33.9 63 -5.3 22.5
15:05 1002 29.59 831 24.54 1.1 33.9 60 -5.7 21.7
15:10 1002 29.59 831 24.54 1.1 34 61 -5.5 22
15:15 1002 29.59 831 24.54 1.2 34.1 61 -5.5 22.2
15:20 1002 29.59 832 24.57 1.3 34.3 61 -5.5 22.1
15:25 1002 29.59 831 24.54 1.3 34.3 61 -5.3 22.4
15:30 1002 29.59 831 24.54 1.3 34.3 62 -5.2 22.6
15:35 1002 29.59 831 24.54 1.3 34.4 62 -5.1 22.8
15:40 1002 29.59 831 24.54 1.3 34.3 61 -5.4 22.3
15:45 1002 29.59 831 24.54 1.3 34.3 63 -4.9 23.1
15:50 1002 29.59 831 24.54 1.2 34.1 65 -4.8 23.4
15:55 1002 29.59 831 24.54 1.1 34 66 -4.6 23.8
16:00 1002 29.59 831 24.54 1.2 34.1 66 -4.4 24
16:05 1002 29.59 831 24.54 1 33.9 67 -4.4 24
16:10 1002 29.59 831 24.54 1 33.8 67 -4.4 24.1
16:15 1002 29.59 831 24.54 0.9 33.7 68 -4.3 24.3
16:20 1002 29.59 831 24.54 1 33.8 69 -4.1 24.7
16:25 1002 29.59 831 24.54 0.9 33.5 70 -4 24.7
16:30 1001 29.56 831 24.54 0.9 33.6 71 -3.9 25
16:35 1001 29.56 831 24.54 1 33.7 70 -3.9 24.9
16:40 1001 29.56 831 24.54 1 33.8 71 -3.7 25.3
16:45 1001 29.56 831 24.54 0.9 33.5 72 -3.6 25.6
16:50 1001 29.56 830 24.51 0.7 33.3 73 -3.5 25.6
16:55 1001 29.56 830 24.51 0.7 33.2 74 -3.5 25.6
17:00 1001 29.56 830 24.51 0.8 33.4 72 -3.7 25.3
17:05 1001 29.56 830 24.51 0.9 33.6 72 -3.5 25.6
17:10 1001 29.56 830 24.51 0.8 33.4 73 -3.5 25.6
17:15 1001 29.56 830 24.51 0.8 33.5 71 -3.9 25.1
17:20 1001 29.56 830 24.51 0.9 33.7 70 -3.9 25
17:25 1001 29.56 830 24.51 1 33.8 70 -3.8 25.1
17:30 1001 29.56 830 24.51 0.9 33.5 71 -3.8 25.2
17:35 1001 29.56 830 24.51 0.8 33.5 71 -3.9 25
17:40 1001 29.56 830 24.51 1 33.9 69 -4.1 24.7
17:45 1001 29.56 830 24.51 1.1 34.1 68 -4.1 24.7
17:50 1001 29.56 830 24.51 1.2 34.1 70 -3.8 25.2
17:55 1001 29.56 830 24.51 0.9 33.7 71 -3.8 25.2
18:00 1001 29.56 830 24.51 0.9 33.7 69 -4 24.7
18:05 1001 29.56 830 24.51 1 33.8 69 -4 24.8
18:10 1001 29.56 830 24.51 1 33.8 69 -4.1 24.7
18:15 1001 29.56 830 24.51 1.2 34.1 67 -4.2 24.4
18:20 1001 29.56 830 24.51 1.3 34.3 67 -4.3 24.3
18:25 1000 29.53 830 24.51 1.4 34.6 66 -4.3 24.3
18:30 1000 29.53 830 24.51 1.5 34.7 67 -4 24.7
18:35 1000 29.53 829 24.48 1.5 34.8 66 -4 24.7
18:40 1000 29.53 830 24.51 1.5 34.8 67 -4 24.8
18:45 1000 29.53 829 24.48 1.6 34.9 66 -4.1 24.6
18:50 1000 29.53 829 24.48 1.7 35 66 -4 24.7
18:55 1000 29.53 829 24.48 1.7 35 66 -4.1 24.7
19:00 1000 29.53 829 24.48 1.6 34.9 66 -4 24.8
19:05 1000 29.53 829 24.48 1.6 34.9 66 -4 24.9
19:10 1000 29.53 829 24.48 1.6 34.9 66 -4 24.7
19:15 1000 29.53 829 24.48 1.6 34.9 68 -3.8 25.2
19:20 1000 29.53 829 24.48 1.5 34.8 68 -3.7 25.4
19:25 1000 29.53 829 24.48 1.5 34.8 67 -3.9 25
19:30 1000 29.53 829 24.48 1.6 34.9 67 -3.8 25.2
19:35 1000 29.53 829 24.48 1.7 35.1 66 -3.9 24.9
19:40 1000 29.53 829 24.48 1.9 35.5 67 -3.7 25.4
19:45 1000 29.53 829 24.48 1.8 35.2 68 -3.4 25.8
19:50 1000 29.53 829 24.48 1.7 35 68 -3.6 25.5
19:55 1000 29.53 829 24.48 2 35.5 67 -3.5 25.7
20:00 999 29.5 829 24.48 1.9 35.5 67 -3.5 25.7
20:05 999 29.5 829 24.48 1.8 35.3 68 -3.3 26
20:10 999 29.5 829 24.48 1.9 35.4 70 -3 26.6
20:15 999 29.5 828 24.45 1.8 35.2 69 -3.4 26
20:20 999 29.5 828 24.45 1.8 35.2 68 -3.4 25.8
20:25 999 29.5 828 24.45 1.8 35.3 68 -3.4 25.9
20:30 999 29.5 828 24.45 1.9 35.5 68 -3.4 25.9
20:35 999 29.5 828 24.45 2 35.6 68 -3.4 25.9
20:40 999 29.5 828 24.45 2.1 35.7 67 -3.4 25.9
20:45 999 29.5 828 24.45 2.1 35.8 67 -3.4 25.9
20:50 999 29.5 828 24.45 2.2 36 67 -3.3 26.1
20:55 999 29.5 828 24.45 2.2 35.9 66 -3.5 25.8
21:00 999 29.5 828 24.45 2.2 36 67 -3.2 26.2
21:05 999 29.5 828 24.45 2.1 35.7 68 -3.2 26.3
21:10 999 29.5 828 24.45 2 35.7 69 -3 26.5
21:15 999 29.5 828 24.45 1.9 35.5 69 -3.1 26.4
21:20 999 29.5 828 24.45 2 35.5 71 -2.8 27
21:25 999 29.5 828 24.45 1.9 35.4 72 -2.7 27.2
21:30 999 29.5 828 24.45 1.9 35.4 72 -2.7 27.2
21:35 999 29.5 828 24.45 1.9 35.3 72 -2.6 27.2
21:40 999 29.5 828 24.45 1.8 35.3 72 -2.7 27.1
21:45 999 29.5 828 24.45 1.9 35.4 73 -2.4 27.6
21:50 999 29.5 828 24.45 1.8 35.2 73 -2.5 27.4
21:55 999 29.5 828 24.45 1.8 35.2 74 -2.4 27.8
22:00 999 29.5 828 24.45 1.7 35.1 75 -2.3 27.9
22:05 999 29.5 828 24.45 1.6 34.9 75 -2.3 27.9
22:10 998 29.47 828 24.45 1.7 35.1 75 -2.3 27.8
22:15 998 29.47 828 24.45 1.8 35.3 74 -2.3 27.8
22:20 998 29.47 828 24.45 1.9 35.3 74 -2.4 27.8
22:25 998 29.47 828 24.45 2 35.6 72 -2.5 27.4
22:30 998 29.47 828 24.45 2.1 35.8 72 -2.4 27.6
22:35 998 29.47 828 24.45 2.1 35.8 72 -2.5 27.5
22:40 999 29.5 828 24.45 2.1 35.8 72 -2.4 27.7
22:45 999 29.5 828 24.45 2.1 35.8 72 -2.4 27.6
22:50 999 29.5 828 24.45 2.2 36 72 -2.4 27.8
22:55 999 29.5 828 24.45 2 35.7 73 -2.3 27.9
23:00 999 29.5 828 24.45 1.9 35.4 73 -2.5 27.4
23:05 999 29.5 828 24.45 1.9 35.5 73 -2.4 27.6
23:10 999 29.5 828 24.45 2 35.7 72 -2.4 27.6
23:15 999 29.5 828 24.45 2 35.7 72 -2.5 27.6
23:20 999 29.5 828 24.45 2.1 35.7 72 -2.4 27.7
23:25 999 29.5 828 24.45 2 35.7 72 -2.5 27.6
23:30 999 29.5 828 24.45 2.2 35.9 72 -2.3 27.8
23:35 999 29.5 828 24.45 2.1 35.9 73 -2.2 28
23:40 999 29.5 828 24.45 2.1 35.7 74 -2.2 28.1
23:45 999 29.5 828 24.45 2 35.5 74 -2.1 28.1
23:50 998 29.47 828 24.45 2 35.6 74 -2.3 27.9
23:55 998 29.47 828 24.45 2.1 35.8 73 -2.2 28
24:00 998 29.47 827 24.42 2.1 35.8 73 -2.2 28.1